MSSS weather

Ilopango International Airport
San Salvador, San Salvador, El Salvador

Public forecast

Using degrees Celsius for public forecast. Weather courtesy of forecast.io.

METAR (pilot weather report)

Retrieved 2019/06/20 13:50 UTC (59 minutes ago):

MSSS 201350Z 34005KT 9999 FEW020 24/23 Q1014 A2995

TAF (pilot weather forecast)

Forecast is more than 12 hours old.

Retrieved 2019/06/16 18:31 UTC (4 days ago):

TAF MSSS 161525Z 1618/1718 19008KT 9999 FEW030 TX32/1619Z TN22/1712Z FM170000 16003KT FEW040CB SCT060 FM170600 00000KT 9999 FEW023